createdAt,value
2017-04-06T06:15:02.524Z,14.75
2017-04-06T06:16:04.204Z,28.55
2017-04-06T06:17:05.938Z,45.73
2017-04-06T06:18:07.692Z,56.30
2017-04-06T06:19:09.525Z,61.24
2017-04-06T06:20:11.396Z,64.23
2017-04-06T06:21:13.152Z,68.02
2017-04-06T06:22:14.899Z,68.46
2017-04-06T06:23:16.647Z,69.32
2017-04-06T06:24:18.289Z,72.06
2017-04-06T06:25:20.144Z,72.53
2017-04-06T06:26:21.780Z,71.50
2017-04-06T06:27:23.619Z,70.83
2017-04-06T06:28:25.369Z,71.78
2017-04-06T06:29:27.080Z,72.82
2017-04-06T06:30:28.817Z,74.81
2017-04-06T06:31:30.660Z,74.24
2017-04-06T06:32:32.336Z,74.81
2017-04-06T06:33:34.128Z,73.99
2017-04-06T06:34:35.980Z,73.43
2017-04-06T06:35:37.650Z,71.91
2017-04-06T06:36:39.466Z,72.67
2017-04-06T06:37:41.186Z,73.90
2017-04-06T06:38:42.892Z,73.33
2017-04-06T10:32:49.784Z,57.24
2017-04-06T10:33:54.274Z,57.24
2017-04-06T10:34:58.762Z,57.53
2017-04-06T10:36:03.260Z,57.91
2017-04-06T10:37:07.663Z,58.48
2017-04-06T10:38:12.104Z,57.91
2017-04-06T10:39:16.493Z,58.00
2017-04-06T10:40:20.935Z,57.62
2017-04-06T10:41:25.381Z,58.10
2017-04-06T10:42:29.802Z,58.58
2017-04-06T10:43:34.187Z,58.00
2017-04-06T10:44:39.021Z,59.05
2017-04-06T10:45:43.457Z,58.58
2017-04-06T10:46:47.840Z,58.48
2017-04-06T10:47:52.467Z,59.30
2017-04-06T10:48:57.055Z,60.35
2017-04-06T10:50:01.436Z,60.53
2017-04-06T10:51:05.854Z,60.35
2017-04-06T10:52:10.540Z,58.36
2017-04-06T10:53:15.014Z,58.26
2017-04-06T10:54:19.362Z,59.49
2017-04-06T10:55:23.777Z,60.06
2017-04-06T10:56:28.221Z,60.63
2017-04-06T10:57:32.682Z,61.58
2017-04-06T10:58:37.402Z,61.39
2017-04-06T10:59:41.470Z,61.49
2017-04-06T11:00:45.915Z,60.92
2017-04-06T11:01:50.312Z,61.68
2017-04-06T11:02:54.651Z,61.68
2017-04-06T11:03:59.104Z,62.15
2017-04-06T11:05:03.474Z,62.05
2017-04-06T11:06:07.873Z,62.72
2017-04-06T11:07:12.510Z,62.62
2017-04-06T11:08:17.007Z,63.01
2017-04-06T11:09:21.499Z,62.72
2017-04-06T11:10:25.884Z,63.01
2017-04-06T11:11:30.351Z,61.71
2017-04-06T11:12:34.729Z,62.05
2017-04-06T11:13:39.102Z,63.10
2017-04-06T11:14:43.559Z,63.67
2017-04-06T11:15:48.062Z,64.68
2017-04-06T11:16:52.467Z,65.72
2017-04-06T11:17:56.955Z,65.25
2017-04-06T11:19:01.393Z,65.44
2017-04-06T11:20:06.398Z,65.75
2017-04-06T11:21:10.185Z,65.34
2017-04-06T11:22:14.655Z,65.72
2017-04-06T11:23:18.971Z,65.16
2017-04-06T11:24:23.381Z,64.81
2017-04-06T11:25:27.733Z,64.43
2017-04-06T11:26:32.124Z,63.48
2017-04-06T11:27:36.686Z,63.29
2017-04-06T11:28:41.030Z,64.43
2017-04-06T11:29:45.479Z,64.52
2017-04-06T11:30:49.833Z,63.29
2017-04-06T11:31:54.214Z,63.01
2017-04-06T11:32:58.612Z,63.57
2017-04-06T11:34:03.032Z,63.95
2017-04-06T11:35:07.497Z,63.86
2017-04-06T11:36:11.929Z,63.76
2017-04-06T11:37:16.358Z,63.29
2017-04-06T11:38:20.718Z,63.76
2017-04-06T11:39:25.113Z,64.62
2017-04-06T11:40:29.787Z,63.95
2017-04-06T11:41:34.164Z,63.48
2017-04-06T11:42:38.592Z,63.76
2017-04-06T11:43:43.065Z,62.62
2017-04-06T11:44:47.476Z,62.82
2017-04-06T11:45:52.120Z,62.15
2017-04-06T11:46:56.517Z,63.01
2017-04-06T11:48:00.895Z,62.82
2017-04-06T11:49:05.312Z,62.91
2017-04-06T11:50:09.684Z,62.62
2017-04-06T11:51:14.174Z,61.96
2017-04-06T11:52:18.597Z,61.33
2017-04-06T11:53:22.993Z,61.42
2017-04-06T11:54:27.417Z,60.53
2017-04-06T11:55:31.953Z,61.39
2017-04-06T11:56:36.360Z,61.96
2017-04-06T11:57:40.838Z,63.48
2017-04-06T11:58:45.254Z,63.95
2017-04-06T11:59:49.622Z,64.05
2017-04-06T12:00:54.023Z,62.91
2017-04-06T12:01:58.383Z,62.82
2017-04-06T12:03:02.786Z,63.01
2017-04-06T12:04:07.212Z,63.29
2017-04-06T12:05:11.603Z,63.10
2017-04-06T12:06:16.039Z,63.20
2017-04-06T12:07:20.612Z,62.91
2017-04-06T12:08:25.048Z,62.15
2017-04-06T12:09:29.473Z,62.53
2017-04-06T12:10:33.877Z,62.62
2017-04-06T12:11:38.244Z,62.56
2017-04-06T12:12:42.631Z,62.15
2017-04-06T12:13:47.002Z,62.53
2017-04-06T12:14:51.425Z,63.20
2017-04-06T12:15:55.971Z,63.10
2017-04-06T12:17:00.382Z,62.91
2017-04-06T12:18:04.763Z,64.52
2017-04-06T12:19:09.347Z,63.95
2017-04-06T12:20:13.731Z,62.82
2017-04-06T12:21:18.102Z,62.72
2017-04-06T12:22:22.540Z,62.62
